This is the latest recevied weather packets stored in our database for station/object KI7CSN-13. If no packets are shown the sender has not sent any weather packets the latest 10 day(s).
| Time | Temp. | Humidity | Pressure | Rain* | Wind** | Luminosity | Snow |
|---|---|---|---|---|---|---|---|
| 1777682571 | 23.33° C | 18% | 982.4 hPa | 0 mm | - | - | - |
| 1777682271 | 23.33° C | 17% | 982.3 hPa | 0 mm | - | - | - |
| 1777681971 | 23.33° C | 16% | 982.4 hPa | 0 mm | - | - | - |
| 1777681671 | 23.33° C | 16% | 982.4 hPa | 0 mm | - | - | - |
| 1777681371 | 23.33° C | 18% | 982.4 hPa | 0 mm | - | - | - |
| 1777681071 | 23.89° C | 18% | 982.3 hPa | 0 mm | - | - | - |
| 1777680771 | 23.89° C | 18% | 982.3 hPa | 0 mm | - | - | - |
| 1777680471 | 23.89° C | 18% | 982.3 hPa | 0 mm | - | - | - |
| 1777680171 | 23.89° C | 18% | 982.3 hPa | 0 mm | - | - | - |
| 1777679871 | 23.89° C | 16% | 982.3 hPa | 0 mm | - | - | - |
| 1777679571 | 24.44° C | 16% | 982.4 hPa | 0 mm | - | - | - |
| 1777679271 | 24.44° C | 16% | 982.3 hPa | 0 mm | - | - | - |
| 1777678971 | 23.89° C | 16% | 982.3 hPa | 0 mm | - | - | - |
| 1777678671 | 25° C | 16% | 982.2 hPa | 0 mm | - | - | - |
| 1777678371 | 25° C | 17% | 982.1 hPa | 0 mm | - | - | - |
| 1777678071 | 23.89° C | 17% | 982.2 hPa | 0 mm | - | - | - |
| 1777677771 | 25.56° C | 16% | 982.1 hPa | 0 mm | - | - | - |
| 1777677471 | 24.44° C | 17% | 982 hPa | 0 mm | - | - | - |
| 1777677171 | 25.56° C | 16% | 982.1 hPa | 0 mm | - | - | - |
| 1777676871 | 24.44° C | 18% | 982 hPa | 0 mm | - | - | - |
| 1777676571 | 26.11° C | 16% | 982 hPa | 0 mm | - | - | - |
| 1777676271 | 25° C | 16% | 982.1 hPa | 0 mm | - | - | - |
| 1777675971 | 25.56° C | 12% | 982.1 hPa | 0 mm | - | - | - |
| 1777675671 | 25° C | 13% | 982 hPa | 0 mm | - | - | - |
| 1777675371 | 25.56° C | 13% | 982 hPa | 0 mm | - | - | - |
* Rain latest hour (hover to see other rain measurements)
** Current wind speed in m/s (hover to see current wind gust speed)